Time;durP1;ratioP1;P1;durP2;ratioP2;P2;SDS_P1;SDS_P2;PMS_P1;PMS_P2;Temp;Humidity;BMP_temperature;BMP_pressure;BME280_temperature;BME280_humidity;BME280_pressure;Samples;Min_cycle;Max_cycle;Signal;HPM_P1;HPM_P2
2022/06/24 00:01:52;;;;;;;;;;;20.70;99.90;;;;;;5053208;28;20423;-66
2022/06/24 00:04:21;;;;;;;;;;;20.70;99.90;;;;;;5051968;28;19965;-66
2022/06/24 00:06:48;;;;;;;;;;;20.50;99.90;;;;;;5052061;28;19932;-66
2022/06/24 00:09:15;;;;;;;;;;;20.50;99.90;;;;;;5051743;28;19925;-66
2022/06/24 00:11:42;;;;;;;;;;;20.50;99.90;;;;;;5051989;28;20454;-66
2022/06/24 00:14:11;;;;;;;;;;;20.50;99.90;;;;;;5051863;28;19925;-66
2022/06/24 00:16:57;;;;;;;;;;;20.50;99.90;;;;;;5051722;28;20363;-66
2022/06/24 00:19:24;;;;;;;;;;;20.50;99.90;;;;;;5051695;28;19972;-66
2022/06/24 00:22:01;;;;;;;;;;;20.50;99.90;;;;;;5051908;28;20402;-66
2022/06/24 00:24:28;;;;;;;;;;;20.40;99.90;;;;;;5051673;28;19931;-66
2022/06/24 00:26:55;;;;;;;;;;;20.30;99.90;;;;;;5051765;28;19928;-66
2022/06/24 00:29:25;;;;;;;;;;;20.30;99.90;;;;;;5051418;28;19935;-66
2022/06/24 00:32:02;;;;;;;;;;;20.10;99.90;;;;;;5051764;28;19932;-67
2022/06/24 00:34:29;;;;;;;;;;;20.10;99.90;;;;;;5051600;28;19925;-66
2022/06/24 00:36:55;;;;;;;;;;;20.10;99.90;;;;;;5051337;28;19929;-67
2022/06/24 00:39:31;;;;;;;;;;;20.10;99.90;;;;;;5051026;28;19936;-67
2022/06/24 00:41:58;;;;;;;;;;;20.10;99.90;;;;;;5051947;28;19925;-67
2022/06/24 00:44:27;;;;;;;;;;;20.20;99.90;;;;;;5051203;28;19925;-67
2022/06/24 00:46:58;;;;;;;;;;;20.20;99.90;;;;;;5051356;28;20012;-67
2022/06/24 00:49:25;;;;;;;;;;;20.20;99.90;;;;;;5051130;28;20392;-66
2022/06/24 00:51:52;;;;;;;;;;;20.10;99.90;;;;;;5051298;28;19924;-67
2022/06/24 00:54:19;;;;;;;;;;;20.10;99.90;;;;;;5050873;28;20351;-66
2022/06/24 00:56:46;;;;;;;;;;;20.10;99.90;;;;;;5050977;28;19928;-67
2022/06/24 00:59:13;;;;;;;;;;;20.20;99.90;;;;;;5050917;28;19925;-66
2022/06/24 01:01:42;;;;;;;;;;;20.00;99.90;;;;;;5050946;28;19925;-66
2022/06/24 01:04:09;;;;;;;;;;;20.00;99.90;;;;;;5050781;28;19931;-67
2022/06/24 01:06:37;;;;;;;;;;;20.00;99.90;;;;;;5050906;28;19932;-66
2022/06/24 01:09:04;;;;;;;;;;;20.10;99.90;;;;;;5050723;28;19979;-67
2022/06/24 01:11:34;;;;;;;;;;;20.20;99.90;;;;;;5050619;28;19925;-66
2022/06/24 01:14:01;;;;;;;;;;;20.10;99.90;;;;;;5050546;28;20385;-66
2022/06/24 01:16:28;;;;;;;;;;;20.20;99.90;;;;;;5050906;28;20301;-66
2022/06/24 01:18:58;;;;;;;;;;;20.20;99.90;;;;;;5050512;28;19925;-67
2022/06/24 01:21:33;;;;;;;;;;;20.00;99.90;;;;;;5050670;28;20396;-66
2022/06/24 01:24:04;;;;;;;;;;;19.90;99.90;;;;;;5050305;28;19951;-66
2022/06/24 01:26:38;;;;;;;;;;;19.90;99.90;;;;;;5050652;28;19925;-66
2022/06/24 01:29:06;;;;;;;;;;;19.80;99.90;;;;;;5049879;28;19935;-66
2022/06/24 01:31:32;;;;;;;;;;;19.70;99.90;;;;;;5050468;28;20400;-67
2022/06/24 01:33:59;;;;;;;;;;;19.60;99.90;;;;;;5050452;28;19931;-66
2022/06/24 01:36:26;;;;;;;;;;;19.70;99.90;;;;;;5050496;28;19924;-67
2022/06/24 01:38:54;;;;;;;;;;;19.60;99.90;;;;;;5050019;28;19924;-66
2022/06/24 01:41:21;;;;;;;;;;;19.50;99.90;;;;;;5050382;28;19979;-66
2022/06/24 01:43:48;;;;;;;;;;;19.50;99.90;;;;;;5050269;28;19924;-66
2022/06/24 01:46:15;;;;;;;;;;;19.50;99.90;;;;;;5050284;28;19982;-66
2022/06/24 01:48:41;;;;;;;;;;;19.50;99.90;;;;;;5050323;28;19998;-67
2022/06/24 01:51:12;;;;;;;;;;;19.40;99.90;;;;;;5049614;28;20187;-66
2022/06/24 01:53:39;;;;;;;;;;;19.40;99.90;;;;;;5049800;28;19925;-66
2022/06/24 01:56:07;;;;;;;;;;;19.40;99.90;;;;;;5049947;28;19925;-66
2022/06/24 01:58:34;;;;;;;;;;;19.40;99.90;;;;;;5049986;28;20396;-66
2022/06/24 02:01:00;;;;;;;;;;;19.40;99.90;;;;;;5050093;28;19960;-66
2022/06/24 02:03:29;;;;;;;;;;;19.40;99.90;;;;;;5049919;28;19932;-66
2022/06/24 02:05:56;;;;;;;;;;;19.40;99.90;;;;;;5049929;28;19970;-66
2022/06/24 02:08:23;;;;;;;;;;;19.40;99.90;;;;;;5050067;28;20355;-66
2022/06/24 02:13:35;;;;;;;;;;;19.40;99.90;;;;;;5049864;28;19925;-65
2022/06/24 02:16:03;;;;;;;;;;;19.40;99.90;;;;;;5049852;28;20343;-66
2022/06/24 02:18:30;;;;;;;;;;;19.40;99.90;;;;;;5049875;28;19925;-67
2022/06/24 02:20:58;;;;;;;;;;;19.20;99.90;;;;;;5049407;28;19932;-66
2022/06/24 02:23:25;;;;;;;;;;;19.20;99.90;;;;;;5048818;28;19924;-65
2022/06/24 02:25:53;;;;;;;;;;;19.20;99.90;;;;;;5049931;28;19933;-66
2022/06/24 02:28:19;;;;;;;;;;;19.20;99.90;;;;;;5049763;28;19924;-66
2022/06/24 02:30:48;;;;;;;;;;;19.20;99.90;;;;;;5049528;28;19971;-66
2022/06/24 02:33:15;;;;;;;;;;;19.20;99.90;;;;;;5049692;28;19955;-66
2022/06/24 02:35:42;;;;;;;;;;;19.20;99.90;;;;;;5049206;28;19936;-67
2022/06/24 02:38:09;;;;;;;;;;;19.20;99.90;;;;;;5049877;28;19932;-66
2022/06/24 02:40:48;;;;;;;;;;;19.30;99.90;;;;;;5049422;28;19929;-66
2022/06/24 02:43:17;;;;;;;;;;;19.30;99.90;;;;;;5049507;28;20384;-67
2022/06/24 02:45:44;;;;;;;;;;;19.30;99.90;;;;;;5049211;28;19957;-66
2022/06/24 02:48:12;;;;;;;;;;;19.30;99.90;;;;;;5049517;28;19940;-66
2022/06/24 02:50:39;;;;;;;;;;;19.30;99.90;;;;;;5049225;28;19925;-66
2022/06/24 02:53:06;;;;;;;;;;;19.30;99.90;;;;;;5049460;28;20347;-67
2022/06/24 02:55:33;;;;;;;;;;;19.20;99.90;;;;;;5049146;28;19982;-66
2022/06/24 02:58:00;;;;;;;;;;;19.30;99.90;;;;;;5049378;28;19948;-66
2022/06/24 03:00:27;;;;;;;;;;;19.20;99.90;;;;;;5049075;28;19928;-67
2022/06/24 03:02:53;;;;;;;;;;;19.20;99.90;;;;;;5049486;28;20011;-66
2022/06/24 03:05:22;;;;;;;;;;;19.00;99.90;;;;;;5049073;28;20289;-65
2022/06/24 03:07:49;;;;;;;;;;;19.00;99.90;;;;;;5049662;28;19925;-66
2022/06/24 03:10:16;;;;;;;;;;;19.00;99.90;;;;;;5049166;28;20020;-67
2022/06/24 03:12:43;;;;;;;;;;;19.00;99.90;;;;;;5049289;28;20308;-66
2022/06/24 03:15:10;;;;;;;;;;;18.90;99.90;;;;;;5048935;28;19929;-66
2022/06/24 03:17:37;;;;;;;;;;;18.90;99.90;;;;;;5049610;28;20355;-66
2022/06/24 03:20:04;;;;;;;;;;;18.90;99.90;;;;;;5050204;28;19964;-67
2022/06/24 03:22:32;;;;;;;;;;;18.90;99.90;;;;;;5049300;28;19971;-66
2022/06/24 03:24:59;;;;;;;;;;;18.80;99.90;;;;;;5049019;28;19925;-66
2022/06/24 03:27:26;;;;;;;;;;;18.90;99.90;;;;;;5049142;28;20315;-66
2022/06/24 03:29:53;;;;;;;;;;;18.90;99.90;;;;;;5050123;28;20467;-66
2022/06/24 03:32:19;;;;;;;;;;;18.90;99.90;;;;;;5049263;28;19924;-66
2022/06/24 03:34:46;;;;;;;;;;;18.90;99.90;;;;;;5052213;28;19925;-66
2022/06/24 03:37:13;;;;;;;;;;;19.00;99.90;;;;;;5052678;28;19929;-67
2022/06/24 03:39:41;;;;;;;;;;;18.90;99.90;;;;;;5052392;28;19947;-67
2022/06/24 03:42:08;;;;;;;;;;;18.90;99.90;;;;;;5052593;28;19924;-67
2022/06/24 03:44:35;;;;;;;;;;;19.00;99.90;;;;;;5052142;28;20471;-67
2022/06/24 03:47:02;;;;;;;;;;;19.10;99.90;;;;;;5091908;22;19924;-68
2022/06/24 03:49:28;;;;;;;;;;;19.20;99.90;;;;;;5071835;28;19924;-68
2022/06/24 03:51:55;;;;;;;;;;;19.20;99.90;;;;;;5073607;28;20001;-67
2022/06/24 03:54:22;;;;;;;;;;;19.10;99.90;;;;;;5073742;28;20391;-68
2022/06/24 03:56:50;;;;;;;;;;;19.10;99.90;;;;;;5072325;28;19952;-67
2022/06/24 03:59:16;;;;;;;;;;;19.20;99.90;;;;;;5072305;28;19952;-68
2022/06/24 04:01:43;;;;;;;;;;;19.10;99.90;;;;;;5072713;28;19967;-68
2022/06/24 04:04:09;;;;;;;;;;;19.20;99.90;;;;;;5071828;28;19978;-67
2022/06/24 04:06:36;;;;;;;;;;;19.10;99.90;;;;;;5073430;28;20005;-68
2022/06/24 04:09:03;;;;;;;;;;;19.10;99.90;;;;;;5072154;28;19924;-68
2022/06/24 04:11:30;;;;;;;;;;;19.20;99.90;;;;;;5073712;28;20009;-67
2022/06/24 04:13:59;;;;;;;;;;;19.20;99.90;;;;;;5071972;28;19952;-68
2022/06/24 04:16:26;;;;;;;;;;;19.20;99.90;;;;;;5071968;28;19925;-67
2022/06/24 04:18:53;;;;;;;;;;;19.20;99.90;;;;;;5071705;28;19924;-68
2022/06/24 04:21:20;;;;;;;;;;;19.30;99.90;;;;;;5072322;28;19932;-67
2022/06/24 04:23:49;;;;;;;;;;;19.20;99.90;;;;;;5071755;28;20366;-67
2022/06/24 04:26:15;;;;;;;;;;;19.20;99.90;;;;;;5071697;28;19924;-68
2022/06/24 04:28:42;;;;;;;;;;;19.30;99.90;;;;;;5071915;28;19925;-68
2022/06/24 04:31:11;;;;;;;;;;;19.40;99.90;;;;;;5071901;28;19932;-67
2022/06/24 04:33:37;;;;;;;;;;;19.40;99.90;;;;;;5071383;28;19925;-68
2022/06/24 04:36:05;;;;;;;;;;;19.50;99.90;;;;;;5071889;28;19924;-67
2022/06/24 04:38:31;;;;;;;;;;;19.40;99.90;;;;;;5071727;28;19928;-67
2022/06/24 04:40:58;;;;;;;;;;;19.50;99.90;;;;;;5071557;28;19924;-67
2022/06/24 04:43:25;;;;;;;;;;;19.60;99.90;;;;;;5071496;28;19925;-68
2022/06/24 04:45:52;;;;;;;;;;;19.60;99.90;;;;;;5070505;28;19924;-68
2022/06/24 04:48:20;;;;;;;;;;;19.70;99.90;;;;;;5071359;28;19929;-68
2022/06/24 04:50:47;;;;;;;;;;;19.70;99.90;;;;;;5071517;28;20419;-68
2022/06/24 04:53:13;;;;;;;;;;;19.70;99.90;;;;;;5071427;28;20293;-67
2022/06/24 04:55:40;;;;;;;;;;;19.80;99.90;;;;;;5070982;28;19932;-67
2022/06/24 04:58:07;;;;;;;;;;;19.80;99.90;;;;;;5071270;28;19924;-68
2022/06/24 05:00:34;;;;;;;;;;;19.90;99.90;;;;;;5070591;28;19929;-67
2022/06/24 05:03:00;;;;;;;;;;;20.00;99.90;;;;;;5064035;28;19928;-68
2022/06/24 05:05:29;;;;;;;;;;;19.90;99.90;;;;;;5051899;28;19932;-66
2022/06/24 05:07:56;;;;;;;;;;;19.80;99.90;;;;;;5066333;28;19933;-68
2022/06/24 05:10:22;;;;;;;;;;;19.70;99.90;;;;;;5070127;28;19924;-68
2022/06/24 05:12:49;;;;;;;;;;;19.60;99.90;;;;;;5050983;28;20328;-68
2022/06/24 05:15:16;;;;;;;;;;;19.60;99.90;;;;;;5050486;28;19932;-68
2022/06/24 05:17:43;;;;;;;;;;;19.70;99.90;;;;;;5050930;28;19925;-67
2022/06/24 05:20:10;;;;;;;;;;;19.70;99.90;;;;;;5061334;28;19924;-67
2022/06/24 05:22:38;;;;;;;;;;;19.80;99.90;;;;;;5070687;28;19931;-68
2022/06/24 05:25:06;;;;;;;;;;;19.80;99.90;;;;;;5070296;28;19956;-68
2022/06/24 05:27:33;;;;;;;;;;;19.80;99.90;;;;;;5070620;28;20020;-67
2022/06/24 05:30:00;;;;;;;;;;;19.80;99.90;;;;;;5070400;28;19928;-67
2022/06/24 05:32:27;;;;;;;;;;;19.80;99.90;;;;;;5070558;28;19924;-67
2022/06/24 05:34:53;;;;;;;;;;;19.80;99.90;;;;;;5070321;28;19924;-67
2022/06/24 05:37:20;;;;;;;;;;;19.80;99.90;;;;;;5058579;28;19925;-67
2022/06/24 05:39:48;;;;;;;;;;;19.90;99.90;;;;;;5050378;28;19928;-68
2022/06/24 05:42:15;;;;;;;;;;;19.90;99.90;;;;;;5050090;28;20362;-67
2022/06/24 05:44:42;;;;;;;;;;;19.90;99.90;;;;;;5049894;28;19978;-67
2022/06/24 05:47:08;;;;;;;;;;;19.90;99.90;;;;;;5049724;28;19925;-67
2022/06/24 05:49:35;;;;;;;;;;;19.70;99.90;;;;;;5050399;28;19979;-67
2022/06/24 05:52:02;;;;;;;;;;;19.70;99.90;;;;;;5050864;28;19928;-67
2022/06/24 05:57:14;;;;;;;;;;;19.40;99.90;;;;;;5053351;28;19927;-67
2022/06/24 05:59:41;;;;;;;;;;;19.10;99.90;;;;;;5050348;28;19932;-66
2022/06/24 06:02:08;;;;;;;;;;;18.50;99.90;;;;;;5063850;28;19940;-67
2022/06/24 06:04:35;;;;;;;;;;;18.30;99.90;;;;;;5070586;28;20342;-64
2022/06/24 06:07:02;;;;;;;;;;;18.20;99.90;;;;;;5070240;28;20384;-66
2022/06/24 06:09:29;;;;;;;;;;;18.10;99.90;;;;;;5069849;28;19925;-67
2022/06/24 06:11:57;;;;;;;;;;;18.10;99.90;;;;;;5054494;28;19929;-66
2022/06/24 06:14:25;;;;;;;;;;;18.20;99.90;;;;;;5049617;28;19929;-66
2022/06/24 06:16:52;;;;;;;;;;;18.20;99.90;;;;;;5050001;28;19925;-67
2022/06/24 06:19:19;;;;;;;;;;;18.20;99.90;;;;;;5049630;28;20346;-67
2022/06/24 06:21:46;;;;;;;;;;;18.20;99.90;;;;;;5053032;28;19936;-67
2022/06/24 06:24:12;;;;;;;;;;;18.00;99.90;;;;;;5050069;28;20376;-66
2022/06/24 06:26:39;;;;;;;;;;;18.00;99.90;;;;;;5049847;28;19925;-67
2022/06/24 06:29:06;;;;;;;;;;;18.00;99.90;;;;;;5059440;28;19986;-66
2022/06/24 06:31:35;;;;;;;;;;;17.90;99.90;;;;;;5058216;28;20361;-68
2022/06/24 06:34:01;;;;;;;;;;;17.90;99.90;;;;;;5069007;28;19925;-68
2022/06/24 06:36:28;;;;;;;;;;;18.00;99.90;;;;;;5063704;28;20067;-67
2022/06/24 06:38:55;;;;;;;;;;;18.10;99.90;;;;;;5059303;28;19932;-67
2022/06/24 06:41:22;;;;;;;;;;;18.10;99.90;;;;;;5057454;28;20331;-66
2022/06/24 06:43:48;;;;;;;;;;;18.10;99.90;;;;;;5051432;28;19924;-66
2022/06/24 06:46:15;;;;;;;;;;;18.10;99.90;;;;;;5067087;28;19936;-66
2022/06/24 06:48:43;;;;;;;;;;;18.10;99.90;;;;;;5053534;28;20285;-66
2022/06/24 06:51:10;;;;;;;;;;;18.20;99.90;;;;;;5061121;28;19924;-66
2022/06/24 06:53:37;;;;;;;;;;;18.20;99.90;;;;;;5054732;28;19924;-66
2022/06/24 06:56:04;;;;;;;;;;;18.30;99.90;;;;;;5054172;28;19929;-66
2022/06/24 06:58:31;;;;;;;;;;;18.30;99.90;;;;;;5055762;28;19983;-67
2022/06/24 07:00:58;;;;;;;;;;;18.30;99.90;;;;;;5054722;28;19929;-66
2022/06/24 07:03:24;;;;;;;;;;;18.40;99.90;;;;;;5057069;28;19925;-66
2022/06/24 07:05:53;;;;;;;;;;;18.40;99.90;;;;;;5062014;28;20424;-66
2022/06/24 07:08:20;;;;;;;;;;;18.50;99.90;;;;;;5065673;28;20311;-66
2022/06/24 07:10:47;;;;;;;;;;;18.60;99.90;;;;;;5062571;28;20318;-66
2022/06/24 07:13:14;;;;;;;;;;;18.70;99.90;;;;;;5063893;28;19925;-67
2022/06/24 07:15:41;;;;;;;;;;;18.80;99.90;;;;;;5067426;28;19925;-66
2022/06/24 07:18:08;;;;;;;;;;;18.90;99.90;;;;;;5058414;28;19939;-66
2022/06/24 07:20:34;;;;;;;;;;;19.00;99.90;;;;;;5062765;28;19925;-66
2022/06/24 07:23:03;;;;;;;;;;;19.00;99.90;;;;;;5061823;28;19931;-65
2022/06/24 07:25:30;;;;;;;;;;;19.00;99.90;;;;;;5075237;28;20403;-66
2022/06/24 07:27:57;;;;;;;;;;;18.90;99.90;;;;;;5072752;28;19987;-66
2022/06/24 07:30:24;;;;;;;;;;;18.90;99.90;;;;;;5072688;28;19925;-66
2022/06/24 07:32:51;;;;;;;;;;;18.90;99.90;;;;;;5072727;28;19935;-66
2022/06/24 07:35:18;;;;;;;;;;;19.00;99.90;;;;;;5072639;28;19974;-66
2022/06/24 07:37:45;;;;;;;;;;;19.10;99.90;;;;;;5072869;28;20346;-66
2022/06/24 07:40:15;;;;;;;;;;;19.30;99.90;;;;;;5072516;28;19925;-66
2022/06/24 07:42:42;;;;;;;;;;;19.40;99.90;;;;;;5072406;28;20011;-66
2022/06/24 07:45:09;;;;;;;;;;;19.40;99.90;;;;;;5071337;28;19924;-67
2022/06/24 07:47:36;;;;;;;;;;;19.40;99.90;;;;;;5072790;28;19924;-66
2022/06/24 07:50:04;;;;;;;;;;;19.50;99.90;;;;;;5072413;28;19928;-66
2022/06/24 07:52:30;;;;;;;;;;;19.50;99.90;;;;;;5072584;28;19932;-65
2022/06/24 07:57:40;;;;;;;;;;;19.60;99.90;;;;;;5071412;28;19920;-67
2022/06/24 08:00:07;;;;;;;;;;;19.50;99.90;;;;;;5072239;28;19929;-66
2022/06/24 08:02:38;;;;;;;;;;;19.60;99.90;;;;;;5073517;28;20028;-67
2022/06/24 08:05:05;;;;;;;;;;;19.60;99.90;;;;;;5071894;28;19924;-66
2022/06/24 08:07:32;;;;;;;;;;;19.70;99.90;;;;;;5072218;28;19932;-66
2022/06/24 08:09:59;;;;;;;;;;;19.70;99.90;;;;;;5071775;28;19928;-67
2022/06/24 08:12:26;;;;;;;;;;;19.80;99.90;;;;;;5052329;28;19939;-66
2022/06/24 08:14:54;;;;;;;;;;;20.00;99.90;;;;;;5051565;28;20381;-66
2022/06/24 08:17:21;;;;;;;;;;;20.10;99.90;;;;;;5051919;28;19960;-66
2022/06/24 08:19:47;;;;;;;;;;;20.20;99.90;;;;;;5050502;28;19928;-65
2022/06/24 08:22:14;;;;;;;;;;;20.40;99.90;;;;;;5051964;28;19964;-67
2022/06/24 08:24:40;;;;;;;;;;;20.30;99.90;;;;;;5051539;28;19964;-67
2022/06/24 08:27:07;;;;;;;;;;;20.40;99.90;;;;;;5051623;28;20019;-66
2022/06/24 08:29:34;;;;;;;;;;;20.60;99.90;;;;;;5051507;28;19953;-66
2022/06/24 08:32:02;;;;;;;;;;;20.50;99.90;;;;;;5051777;28;20021;-65
2022/06/24 08:34:28;;;;;;;;;;;20.70;99.90;;;;;;5051944;28;19929;-67
2022/06/24 08:36:55;;;;;;;;;;;20.80;99.90;;;;;;5051863;28;19925;-67
2022/06/24 08:39:21;;;;;;;;;;;20.70;99.90;;;;;;5051542;28;19975;-66
2022/06/24 08:41:51;;;;;;;;;;;20.60;99.90;;;;;;5051576;28;20466;-66
2022/06/24 08:44:18;;;;;;;;;;;20.60;99.90;;;;;;5051119;28;19968;-66
2022/06/24 08:46:45;;;;;;;;;;;20.70;99.90;;;;;;5050733;28;19971;-66
2022/06/24 08:49:13;;;;;;;;;;;20.60;99.90;;;;;;5051167;28;20015;-66
2022/06/24 08:51:41;;;;;;;;;;;20.30;99.90;;;;;;5051588;28;19967;-66
2022/06/24 08:54:08;;;;;;;;;;;20.40;99.90;;;;;;5051262;28;19956;-66
2022/06/24 08:56:35;;;;;;;;;;;20.60;99.90;;;;;;5051030;28;19956;-66
2022/06/24 08:59:02;;;;;;;;;;;20.70;99.90;;;;;;5050862;28;19925;-66
2022/06/24 09:01:28;;;;;;;;;;;20.90;99.90;;;;;;5052883;28;19960;-66
2022/06/24 09:03:55;;;;;;;;;;;21.40;99.90;;;;;;5051085;28;19924;-66
2022/06/24 09:06:23;;;;;;;;;;;21.60;99.90;;;;;;5052390;28;19968;-66
2022/06/24 09:08:51;;;;;;;;;;;21.70;99.90;;;;;;5050786;28;19968;-68
2022/06/24 09:11:18;;;;;;;;;;;21.70;99.90;;;;;;5061291;28;20438;-67
2022/06/24 09:13:45;;;;;;;;;;;21.70;99.90;;;;;;5070584;28;19925;-66
2022/06/24 09:16:13;;;;;;;;;;;22.10;99.90;;;;;;5070754;28;19974;-66
2022/06/24 09:18:40;;;;;;;;;;;22.40;99.90;;;;;;5070678;28;19928;-66
2022/06/24 09:21:07;;;;;;;;;;;22.40;99.90;;;;;;5070471;28;19925;-66
2022/06/24 09:23:51;;;;;;;;;;;22.30;99.90;;;;;;5070389;28;19925;-66
2022/06/24 09:26:22;;;;;;;;;;;22.10;99.90;;;;;;5070306;28;19928;-67
2022/06/24 09:28:54;;;;;;;;;;;22.10;99.90;;;;;;5069726;28;19936;-67
2022/06/24 09:31:24;;;;;;;;;;;22.40;99.90;;;;;;5070519;28;19932;-66
2022/06/24 09:33:52;;;;;;;;;;;22.50;99.90;;;;;;5070085;28;20369;-66
2022/06/24 09:36:22;;;;;;;;;;;22.60;99.90;;;;;;5070592;28;20284;-66
2022/06/24 09:38:54;;;;;;;;;;;22.50;99.90;;;;;;5069840;28;19935;-65
2022/06/24 09:41:21;;;;;;;;;;;22.60;99.90;;;;;;5070972;28;19929;-66
2022/06/24 09:43:47;;;;;;;;;;;22.80;99.90;;;;;;5070870;28;19924;-66
2022/06/24 09:46:17;;;;;;;;;;;23.10;99.90;;;;;;5070166;28;19928;-67
2022/06/24 09:48:43;;;;;;;;;;;23.10;99.90;;;;;;5052761;28;20462;-67
2022/06/24 09:51:10;;;;;;;;;;;23.20;99.90;;;;;;5049168;28;19926;-66
2022/06/24 09:53:40;;;;;;;;;;;23.10;99.90;;;;;;5049972;28;19940;-66
2022/06/24 09:56:09;;;;;;;;;;;23.10;99.90;;;;;;5069342;28;20298;-66
2022/06/24 09:58:36;;;;;;;;;;;23.10;99.90;;;;;;5069922;28;20285;-67
2022/06/24 10:01:02;;;;;;;;;;;23.20;99.90;;;;;;5068977;28;19954;-67
2022/06/24 10:03:29;;;;;;;;;;;23.40;99.90;;;;;;5070092;28;20311;-66
2022/06/24 10:06:00;;;;;;;;;;;23.80;99.90;;;;;;5070547;28;19925;-66
2022/06/24 10:08:29;;;;;;;;;;;23.90;99.90;;;;;;5070197;28;19924;-66
2022/06/24 10:10:57;;;;;;;;;;;23.70;99.90;;;;;;5062597;28;19925;-66
2022/06/24 10:13:26;;;;;;;;;;;23.90;99.90;;;;;;5058076;28;20325;-67
2022/06/24 10:15:54;;;;;;;;;;;23.70;99.90;;;;;;5069552;28;19928;-65
2022/06/24 10:18:23;;;;;;;;;;;23.50;99.90;;;;;;5068037;28;19929;-66
2022/06/24 10:20:51;;;;;;;;;;;23.60;99.90;;;;;;5068551;28;19933;-66
2022/06/24 10:23:32;;;;;;;;;;;23.70;99.90;;;;;;5069731;28;19924;-66
2022/06/24 10:25:59;;;;;;;;;;;23.90;99.90;;;;;;5066490;28;19946;-66
2022/06/24 10:28:27;;;;;;;;;;;23.90;99.90;;;;;;5057181;28;19936;-66
2022/06/24 10:30:56;;;;;;;;;;;23.90;99.90;;;;;;5049192;28;19925;-66
2022/06/24 10:33:24;;;;;;;;;;;24.10;99.90;;;;;;5049991;28;19940;-66
2022/06/24 10:36:01;;;;;;;;;;;23.90;99.90;;;;;;5049506;28;20020;-66
2022/06/24 10:38:34;;;;;;;;;;;23.80;99.90;;;;;;5082910;28;20400;-66
2022/06/24 10:41:01;;;;;;;;;;;23.60;99.90;;;;;;5048816;28;19932;-66
2022/06/24 10:43:40;;;;;;;;;;;23.40;99.90;;;;;;5051072;28;19925;-66
2022/06/24 10:46:20;;;;;;;;;;;23.40;99.90;;;;;;5066454;28;20027;-66
2022/06/24 10:49:00;;;;;;;;;;;23.10;99.90;;;;;;5073444;28;19931;-68
2022/06/24 10:51:29;;;;;;;;;;;22.90;99.90;;;;;;5073471;28;19924;-65
2022/06/24 10:54:14;;;;;;;;;;;23.00;99.90;;;;;;5071678;28;20007;-66
2022/06/24 10:56:42;;;;;;;;;;;23.10;99.90;;;;;;5068963;28;20396;-66
2022/06/24 10:59:12;;;;;;;;;;;23.10;99.90;;;;;;5073363;28;19931;-65
2022/06/24 11:01:42;;;;;;;;;;;23.10;99.90;;;;;;5073125;28;19928;-66
2022/06/24 11:04:11;;;;;;;;;;;23.10;99.90;;;;;;5072998;28;19928;-65
2022/06/24 11:06:38;;;;;;;;;;;23.10;99.90;;;;;;5073355;28;20403;-66
2022/06/24 11:09:05;;;;;;;;;;;23.20;99.90;;;;;;5073746;28;19940;-66
2022/06/24 11:11:32;;;;;;;;;;;23.40;99.90;;;;;;5074473;28;19931;-65
2022/06/24 11:13:59;;;;;;;;;;;23.50;99.90;;;;;;5073898;28;20292;-65
2022/06/24 11:16:30;;;;;;;;;;;23.60;99.90;;;;;;5074151;28;20342;-65
2022/06/24 11:18:58;;;;;;;;;;;23.60;99.90;;;;;;5073886;28;19932;-65
2022/06/24 11:21:26;;;;;;;;;;;23.80;99.90;;;;;;5073806;28;19924;-65
2022/06/24 11:23:54;;;;;;;;;;;23.80;99.90;;;;;;5065534;28;19925;-66
2022/06/24 11:26:21;;;;;;;;;;;23.90;99.90;;;;;;5061282;28;19924;-66
2022/06/24 11:28:50;;;;;;;;;;;24.30;99.90;;;;;;5064882;28;20404;-65
2022/06/24 11:31:18;;;;;;;;;;;24.60;99.90;;;;;;5072269;28;19968;-66
2022/06/24 11:33:47;;;;;;;;;;;25.00;99.90;;;;;;5071706;28;19932;-66
2022/06/24 11:36:14;;;;;;;;;;;25.40;99.90;;;;;;5067672;28;19990;-66
2022/06/24 11:38:48;;;;;;;;;;;25.10;99.90;;;;;;5059401;28;19933;-66
2022/06/24 11:41:21;;;;;;;;;;;25.40;99.90;;;;;;5068484;28;19929;-67
2022/06/24 11:43:49;;;;;;;;;;;26.70;99.90;;;;;;5062525;28;20391;-67
2022/06/24 11:46:16;;;;;;;;;;;27.80;99.90;;;;;;5061118;28;19928;-66
2022/06/24 11:48:43;;;;;;;;;;;28.10;99.90;;;;;;5065833;28;19928;-65
2022/06/24 11:51:18;;;;;;;;;;;27.50;99.90;;;;;;5062175;28;19925;-66
2022/06/24 11:53:56;;;;;;;;;;;28.00;99.90;;;;;;5068465;28;19924;-66
2022/06/24 11:56:22;;;;;;;;;;;27.70;99.90;;;;;;5061041;28;19967;-66
2022/06/24 11:58:49;;;;;;;;;;;28.00;99.90;;;;;;5058764;28;19936;-67
2022/06/24 12:01:16;;;;;;;;;;;28.40;99.90;;;;;;5055933;28;19935;-66
2022/06/24 12:03:43;;;;;;;;;;;29.20;99.90;;;;;;5059156;28;19929;-67
2022/06/24 12:06:10;;;;;;;;;;;30.30;99.90;;;;;;5058767;28;19925;-66
2022/06/24 12:08:39;;;;;;;;;;;30.00;99.90;;;;;;5084154;28;19924;-67
2022/06/24 12:11:13;;;;;;;;;;;29.70;99.90;;;;;;5072096;28;19932;-67
2022/06/24 12:13:40;;;;;;;;;;;31.10;99.90;;;;;;5069721;28;19924;-66
2022/06/24 12:16:07;;;;;;;;;;;32.30;99.90;;;;;;5068401;28;19924;-66
2022/06/24 12:18:34;;;;;;;;;;;33.60;99.90;;;;;;5061373;28;20436;-66
2022/06/24 12:21:03;;;;;;;;;;;35.00;99.90;;;;;;5063359;28;20030;-72
2022/06/24 12:23:34;;;;;;;;;;;32.60;99.90;;;;;;5067137;28;20398;-67
2022/06/24 12:26:07;;;;;;;;;;;30.80;99.90;;;;;;5066477;28;20418;-68
2022/06/24 12:28:34;;;;;;;;;;;30.50;99.90;;;;;;5062873;28;20020;-67
2022/06/24 12:31:02;;;;;;;;;;;31.30;99.90;;;;;;5065651;28;19924;-68
2022/06/24 12:33:30;;;;;;;;;;;31.60;99.90;;;;;;5066475;28;19932;-67
2022/06/24 12:36:11;;;;;;;;;;;32.10;99.90;;;;;;5063809;28;19924;-67
2022/06/24 12:38:39;;;;;;;;;;;31.20;99.90;;;;;;5062757;28;19925;-66
2022/06/24 12:41:15;;;;;;;;;;;30.80;99.90;;;;;;5069702;28;20442;-66
2022/06/24 12:43:51;;;;;;;;;;;30.40;99.90;;;;;;5062894;28;20455;-67
2022/06/24 12:46:18;;;;;;;;;;;30.10;99.90;;;;;;5061756;28;20373;-67
2022/06/24 12:51:29;;;;;;;;;;;32.20;99.90;;;;;;5055184;28;19931;-65
2022/06/24 12:53:56;;;;;;;;;;;32.90;99.90;;;;;;5059718;28;19932;-67
2022/06/24 12:56:24;;;;;;;;;;;32.30;99.90;;;;;;5057360;28;19939;-69
2022/06/24 12:58:51;;;;;;;;;;;32.00;99.90;;;;;;5060079;28;19925;-69
2022/06/24 13:01:18;;;;;;;;;;;31.60;99.90;;;;;;5062152;28;19952;-68
2022/06/24 13:03:45;;;;;;;;;;;30.90;99.90;;;;;;5069683;28;19931;-68
2022/06/24 13:06:12;;;;;;;;;;;30.50;99.90;;;;;;5061359;28;19924;-68
2022/06/24 13:08:38;;;;;;;;;;;30.70;99.90;;;;;;5052503;28;19933;-68
2022/06/24 13:11:05;;;;;;;;;;;31.20;99.90;;;;;;5056486;28;19968;-68
2022/06/24 13:13:34;;;;;;;;;;;31.20;99.90;;;;;;5052843;28;19971;-69
2022/06/24 13:16:01;;;;;;;;;;;30.00;99.90;;;;;;5063493;28;20380;-68
2022/06/24 13:18:28;;;;;;;;;;;29.40;99.90;;;;;;5060671;28;20020;-68
2022/06/24 13:20:54;;;;;;;;;;;30.90;99.90;;;;;;5057690;28;19968;-68
2022/06/24 13:23:21;;;;;;;;;;;31.50;99.90;;;;;;5056946;28;20408;-67
2022/06/24 13:25:48;;;;;;;;;;;31.10;99.90;;;;;;5058551;28;19959;-68
2022/06/24 13:28:15;;;;;;;;;;;31.00;99.90;;;;;;5059468;28;20407;-68
2022/06/24 13:30:43;;;;;;;;;;;31.80;99.90;;;;;;5063291;28;19925;-67
2022/06/24 13:33:09;;;;;;;;;;;32.90;99.90;;;;;;5066236;28;20003;-68
2022/06/24 13:35:36;;;;;;;;;;;32.50;99.90;;;;;;5059780;28;19971;-68
2022/06/24 13:38:03;;;;;;;;;;;33.70;99.90;;;;;;5064585;28;19963;-68
2022/06/24 13:40:30;;;;;;;;;;;33.40;99.90;;;;;;5068526;28;20021;-68
2022/06/24 13:42:57;;;;;;;;;;;33.30;99.90;;;;;;5062814;28;20405;-71
2022/06/24 13:45:24;;;;;;;;;;;33.30;99.90;;;;;;5057354;28;19967;-69
2022/06/24 13:47:52;;;;;;;;;;;34.60;99.90;;;;;;5063536;28;19929;-75
2022/06/24 13:50:19;;;;;;;;;;;35.80;99.90;;;;;;5061079;28;19925;-68
2022/06/24 13:52:45;;;;;;;;;;;34.40;99.90;;;;;;5063690;28;19925;-68
2022/06/24 13:55:12;;;;;;;;;;;32.10;99.90;;;;;;5060512;28;19924;-72
2022/06/24 13:57:39;;;;;;;;;;;30.50;99.90;;;;;;5062686;28;19931;-70
2022/06/24 14:00:06;;;;;;;;;;;29.50;99.90;;;;;;5060288;28;19937;-67
2022/06/24 14:02:40;;;;;;;;;;;29.10;99.90;;;;;;5059086;28;19976;-67
2022/06/24 14:05:09;;;;;;;;;;;28.50;99.90;;;;;;5058994;28;19925;-67
2022/06/24 14:07:35;;;;;;;;;;;27.90;99.90;;;;;;5059890;28;19997;-67
2022/06/24 14:10:02;;;;;;;;;;;27.70;99.90;;;;;;5058527;28;19928;-67
2022/06/24 14:12:29;;;;;;;;;;;27.40;99.90;;;;;;5068531;28;19924;-67
2022/06/24 14:14:56;;;;;;;;;;;27.20;99.90;;;;;;5061940;28;19974;-68
2022/06/24 14:17:23;;;;;;;;;;;26.80;99.90;;;;;;5066647;28;19924;-68
2022/06/24 14:19:50;;;;;;;;;;;26.10;99.90;;;;;;5063055;28;19924;-67
2022/06/24 14:22:18;;;;;;;;;;;26.10;99.90;;;;;;5069550;28;19974;-67
2022/06/24 14:24:45;;;;;;;;;;;26.20;99.90;;;;;;5056175;28;20354;-67
2022/06/24 14:27:12;;;;;;;;;;;26.00;99.90;;;;;;5064834;28;20315;-67
2022/06/24 14:29:39;;;;;;;;;;;25.90;99.90;;;;;;5062093;28;20285;-67
2022/06/24 14:32:06;;;;;;;;;;;25.80;99.90;;;;;;5060982;28;19924;-66